Terminal Aerodrome Forecast
Issued by NWS Wilmington, OH

Current Version | Previous Version | Graphics & Text | Print | Product List | Glossary On
Versions: 1 2 3 4 5 6 7 8 9 10 11 12 13 14 15 16 17 18
133
FTUS41 KILN 192344 AAA
TAFDAY
TAF AMD
KDAY 192344Z 2000/2024 28012KT P6SM OVC025
     FM200200 27009KT P6SM SCT025
     FM200400 26008KT P6SM FEW250
     FM201300 21009KT P6SM FEW250
     FM201600 21013G20KT P6SM FEW250=

USA.gov is the U.S. government's official web portal to all federal, state and local government web resources and services.